ソルトレイクシティ の空港の天気 - METARとTAF

ソルト・レーク・シティ国際空港 ( KSLC / SLC ) - アメリカ ユタ州ソルトレイクシティ
飛行場実況気象(Metar)
観測時間10/19 21:54 MDT (10/20 03:54 UTC)
風向・風速南東 7m/s
視程10km以上
天気現象
少しの雲 雲底高度 910m
全天の4割程度の雲 雲底高度 2290m
全天の8割程度の雲 雲底高度 3050m
気温2.2℃
湿度96%
気圧1013.1hPa
METARKSLC 200354Z 13013KT 10SM FEW030 SCT075 BKN100 02/02 A2994 RMK AO2 RAE41 SLP131 P0003 T00220017
過去の天気等 Google飛行場航空写真 Wunderground天気予報

過去48時間のMETAR

飛行場予報(TAF)
発表時間: 10/19 22:08 MDT (10/20 04:08 UTC)
予報対象時間: 19日22時 MDT ~ 21日0時 MDT
風向・風速南南東 5m/s
視程10km以上
天気現象弱い雨
全天の4割程度の雲 雲底高度 760m
全天の8割程度の雲 雲底高度 2130m
全天を覆う雲 雲底高度 3050m
20日2時 MDT から
風向・風速北西 3m/s
視程8050m
天気現象弱い雪 もや
全天の8割程度の雲 雲底高度 1520m
20日7時 MDT から
風向・風速南東 3m/s
視程8050m
天気現象弱い雪
全天の4割程度の雲 雲底高度 400m
全天を覆う雲 雲底高度 610m
20日11時 MDT から
風向・風速北北西 6m/s
視程10km以上
天気現象周辺でしゅう雨
全天の4割程度の雲 雲底高度 610m
全天の8割程度の雲 雲底高度 910m
20日17時 MDT から
風向・風速北西 5m/s
視程10km以上
天気現象周辺でしゅう雨
全天の4割程度の雲 雲底高度 760m
全天の8割程度の雲 雲底高度 1520m
20日19時 MDT から
風向・風速北 4m/s
視程10km以上
全天の4割程度の雲 雲底高度 1220m
全天の8割程度の雲 雲底高度 2130m
KSLC 200408Z 2004/2106 15010KT P6SM -RA SCT025 BKN070 OVC100
FM200800 31006KT 5SM -SN BR BKN050
FM201300 13006KT 5SM -SN SCT013 OVC020
FM201700 33012KT P6SM VCSH SCT020 BKN030
FM202300 31009KT P6SM VCSH SCT025 BKN050
FM210100 35008KT P6SM SCT040 BKN070